sensor_id;sensor_type;location;lat;lon;timestamp;P1;durP1;ratioP1;P2;durP2;ratioP2
82513;SDS011;72858;52.130;5.584;2024-03-23T00:52:28;52.28;;;20.55;;
82513;SDS011;72858;52.130;5.584;2024-03-23T00:54:53;49.57;;;19.03;;
82513;SDS011;72858;52.130;5.584;2024-03-23T00:57:18;43.30;;;18.30;;
82513;SDS011;72858;52.130;5.584;2024-03-23T00:59:43;47.23;;;19.03;;
82513;SDS011;72858;52.130;5.584;2024-03-23T01:02:09;54.03;;;19.77;;
82513;SDS011;72858;52.130;5.584;2024-03-23T01:04:34;41.77;;;19.43;;
82513;SDS011;72858;52.130;5.584;2024-03-23T01:06:59;53.67;;;20.43;;
82513;SDS011;72858;52.130;5.584;2024-03-23T01:09:24;51.20;;;20.77;;
82513;SDS011;72858;52.130;5.584;2024-03-23T01:11:49;54.80;;;20.77;;
82513;SDS011;72858;52.130;5.584;2024-03-23T01:14:15;50.60;;;22.07;;
82513;SDS011;72858;52.130;5.584;2024-03-23T01:16:40;48.17;;;20.00;;
82513;SDS011;72858;52.130;5.584;2024-03-23T01:19:05;55.23;;;20.03;;
82513;SDS011;72858;52.130;5.584;2024-03-23T01:21:31;53.35;;;19.50;;
82513;SDS011;72858;52.130;5.584;2024-03-23T01:23:56;48.55;;;18.92;;
82513;SDS011;72858;52.130;5.584;2024-03-23T01:26:21;50.83;;;18.25;;
82513;SDS011;72858;52.130;5.584;2024-03-23T01:28:47;49.95;;;19.60;;
82513;SDS011;72858;52.130;5.584;2024-03-23T01:31:12;55.57;;;18.47;;
82513;SDS011;72858;52.130;5.584;2024-03-23T01:33:37;34.92;;;16.73;;
82513;SDS011;72858;52.130;5.584;2024-03-23T01:36:03;49.00;;;17.53;;
82513;SDS011;72858;52.130;5.584;2024-03-23T01:38:28;44.80;;;17.92;;
82513;SDS011;72858;52.130;5.584;2024-03-23T01:40:57;42.03;;;17.40;;
82513;SDS011;72858;52.130;5.584;2024-03-23T01:43:22;52.95;;;17.05;;
82513;SDS011;72858;52.130;5.584;2024-03-23T01:45:48;48.45;;;16.40;;
82513;SDS011;72858;52.130;5.584;2024-03-23T01:48:13;32.10;;;15.82;;
82513;SDS011;72858;52.130;5.584;2024-03-23T01:50:38;43.10;;;16.38;;
82513;SDS011;72858;52.130;5.584;2024-03-23T01:53:04;36.63;;;14.63;;
82513;SDS011;72858;52.130;5.584;2024-03-23T01:55:32;40.72;;;16.98;;
82513;SDS011;72858;52.130;5.584;2024-03-23T01:57:57;50.17;;;17.83;;
82513;SDS011;72858;52.130;5.584;2024-03-23T02:00:22;40.63;;;16.53;;
82513;SDS011;72858;52.130;5.584;2024-03-23T02:02:48;44.05;;;16.27;;
82513;SDS011;72858;52.130;5.584;2024-03-23T02:05:13;40.10;;;15.82;;
82513;SDS011;72858;52.130;5.584;2024-03-23T02:07:38;43.45;;;16.52;;
82513;SDS011;72858;52.130;5.584;2024-03-23T02:10:05;41.25;;;17.02;;
82513;SDS011;72858;52.130;5.584;2024-03-23T02:12:30;47.58;;;16.77;;
82513;SDS011;72858;52.130;5.584;2024-03-23T02:14:55;57.90;;;18.48;;
82513;SDS011;72858;52.130;5.584;2024-03-23T02:17:21;38.87;;;16.50;;
82513;SDS011;72858;52.130;5.584;2024-03-23T02:19:46;42.27;;;16.27;;
82513;SDS011;72858;52.130;5.584;2024-03-23T02:22:11;46.33;;;17.50;;
82513;SDS011;72858;52.130;5.584;2024-03-23T02:24:37;43.75;;;16.38;;
82513;SDS011;72858;52.130;5.584;2024-03-23T02:27:02;48.55;;;17.13;;
82513;SDS011;72858;52.130;5.584;2024-03-23T02:29:28;47.60;;;17.08;;
82513;SDS011;72858;52.130;5.584;2024-03-23T02:31:53;52.27;;;16.00;;
82513;SDS011;72858;52.130;5.584;2024-03-23T02:34:18;38.40;;;15.77;;
82513;SDS011;72858;52.130;5.584;2024-03-23T02:36:43;39.70;;;15.17;;
82513;SDS011;72858;52.130;5.584;2024-03-23T02:39:08;43.47;;;15.65;;
82513;SDS011;72858;52.130;5.584;2024-03-23T02:41:34;45.33;;;14.80;;
82513;SDS011;72858;52.130;5.584;2024-03-23T02:43:59;30.87;;;14.03;;
82513;SDS011;72858;52.130;5.584;2024-03-23T02:46:24;39.53;;;14.87;;
82513;SDS011;72858;52.130;5.584;2024-03-23T02:48:49;40.33;;;14.88;;
82513;SDS011;72858;52.130;5.584;2024-03-23T02:51:14;34.92;;;14.00;;
82513;SDS011;72858;52.130;5.584;2024-03-23T02:53:40;44.47;;;14.80;;
82513;SDS011;72858;52.130;5.584;2024-03-23T02:56:06;35.20;;;14.27;;
82513;SDS011;72858;52.130;5.584;2024-03-23T02:58:31;34.92;;;14.48;;
82513;SDS011;72858;52.130;5.584;2024-03-23T03:00:56;36.73;;;15.70;;
82513;SDS011;72858;52.130;5.584;2024-03-23T03:03:22;37.13;;;16.43;;
82513;SDS011;72858;52.130;5.584;2024-03-23T03:05:47;46.73;;;15.70;;
82513;SDS011;72858;52.130;5.584;2024-03-23T03:08:12;42.83;;;16.47;;
82513;SDS011;72858;52.130;5.584;2024-03-23T03:10:37;42.90;;;16.83;;
82513;SDS011;72858;52.130;5.584;2024-03-23T03:13:02;38.40;;;16.80;;
82513;SDS011;72858;52.130;5.584;2024-03-23T03:15:28;36.67;;;17.73;;
82513;SDS011;72858;52.130;5.584;2024-03-23T03:17:53;44.95;;;18.95;;
82513;SDS011;72858;52.130;5.584;2024-03-23T03:20:18;40.63;;;17.77;;
82513;SDS011;72858;52.130;5.584;2024-03-23T03:22:43;47.63;;;18.50;;
82513;SDS011;72858;52.130;5.584;2024-03-23T03:25:09;47.35;;;19.48;;
82513;SDS011;72858;52.130;5.584;2024-03-23T03:27:34;49.83;;;19.95;;
82513;SDS011;72858;52.130;5.584;2024-03-23T03:29:59;47.28;;;19.27;;
82513;SDS011;72858;52.130;5.584;2024-03-23T03:32:27;39.53;;;18.75;;
82513;SDS011;72858;52.130;5.584;2024-03-23T03:34:52;46.10;;;17.75;;
82513;SDS011;72858;52.130;5.584;2024-03-23T03:37:17;43.97;;;17.53;;
82513;SDS011;72858;52.130;5.584;2024-03-23T03:39:42;46.13;;;18.10;;
82513;SDS011;72858;52.130;5.584;2024-03-23T03:42:07;37.60;;;17.40;;
82513;SDS011;72858;52.130;5.584;2024-03-23T03:44:33;50.97;;;18.07;;
82513;SDS011;72858;52.130;5.584;2024-03-23T03:46:58;44.35;;;18.25;;
82513;SDS011;72858;52.130;5.584;2024-03-23T03:49:23;45.20;;;19.10;;
82513;SDS011;72858;52.130;5.584;2024-03-23T03:51:48;51.80;;;18.60;;
82513;SDS011;72858;52.130;5.584;2024-03-23T03:54:13;49.33;;;18.90;;
82513;SDS011;72858;52.130;5.584;2024-03-23T03:56:39;45.47;;;17.53;;
82513;SDS011;72858;52.130;5.584;2024-03-23T03:59:04;41.75;;;18.00;;
82513;SDS011;72858;52.130;5.584;2024-03-23T04:01:30;49.58;;;19.48;;
82513;SDS011;72858;52.130;5.584;2024-03-23T04:03:55;51.40;;;19.23;;
82513;SDS011;72858;52.130;5.584;2024-03-23T04:06:20;45.03;;;18.77;;
82513;SDS011;72858;52.130;5.584;2024-03-23T04:08:45;41.35;;;16.85;;
82513;SDS011;72858;52.130;5.584;2024-03-23T04:11:11;39.20;;;17.43;;
82513;SDS011;72858;52.130;5.584;2024-03-23T04:13:36;50.57;;;16.20;;
82513;SDS011;72858;52.130;5.584;2024-03-23T04:16:01;39.63;;;16.07;;
82513;SDS011;72858;52.130;5.584;2024-03-23T04:18:26;39.13;;;15.93;;
82513;SDS011;72858;52.130;5.584;2024-03-23T04:20:51;37.75;;;15.27;;
82513;SDS011;72858;52.130;5.584;2024-03-23T04:23:17;30.75;;;14.45;;
82513;SDS011;72858;52.130;5.584;2024-03-23T04:25:42;39.08;;;14.52;;
82513;SDS011;72858;52.130;5.584;2024-03-23T04:28:07;47.87;;;14.83;;
82513;SDS011;72858;52.130;5.584;2024-03-23T04:30:32;40.97;;;13.90;;
82513;SDS011;72858;52.130;5.584;2024-03-23T04:32:57;30.73;;;14.17;;
82513;SDS011;72858;52.130;5.584;2024-03-23T04:35:23;31.90;;;13.85;;
82513;SDS011;72858;52.130;5.584;2024-03-23T04:37:50;34.75;;;13.68;;
82513;SDS011;72858;52.130;5.584;2024-03-23T04:40:17;33.17;;;14.05;;
82513;SDS011;72858;52.130;5.584;2024-03-23T04:42:42;39.63;;;13.07;;
82513;SDS011;72858;52.130;5.584;2024-03-23T04:45:07;40.77;;;14.00;;
82513;SDS011;72858;52.130;5.584;2024-03-23T04:47:33;32.65;;;12.40;;
82513;SDS011;72858;52.130;5.584;2024-03-23T04:50:00;35.40;;;12.80;;
82513;SDS011;72858;52.130;5.584;2024-03-23T04:52:26;32.22;;;11.65;;
82513;SDS011;72858;52.130;5.584;2024-03-23T04:54:51;30.60;;;12.10;;
82513;SDS011;72858;52.130;5.584;2024-03-23T04:57:17;37.83;;;11.17;;
82513;SDS011;72858;52.130;5.584;2024-03-23T04:59:42;35.83;;;12.07;;
82513;SDS011;72858;52.130;5.584;2024-03-23T05:02:07;35.33;;;11.40;;
82513;SDS011;72858;52.130;5.584;2024-03-23T05:04:32;24.73;;;10.52;;
82513;SDS011;72858;52.130;5.584;2024-03-23T05:06:58;30.17;;;10.23;;
82513;SDS011;72858;52.130;5.584;2024-03-23T05:09:23;23.15;;;9.65;;
82513;SDS011;72858;52.130;5.584;2024-03-23T05:11:48;30.45;;;9.30;;
82513;SDS011;72858;52.130;5.584;2024-03-23T05:14:13;21.30;;;8.20;;
82513;SDS011;72858;52.130;5.584;2024-03-23T05:16:39;19.20;;;7.53;;
82513;SDS011;72858;52.130;5.584;2024-03-23T05:19:04;20.55;;;7.57;;
82513;SDS011;72858;52.130;5.584;2024-03-23T05:21:29;22.08;;;6.68;;
82513;SDS011;72858;52.130;5.584;2024-03-23T05:23:55;19.08;;;6.15;;
82513;SDS011;72858;52.130;5.584;2024-03-23T05:26:21;22.00;;;7.40;;
82513;SDS011;72858;52.130;5.584;2024-03-23T05:28:46;21.58;;;5.82;;
82513;SDS011;72858;52.130;5.584;2024-03-23T05:31:12;21.90;;;6.20;;
82513;SDS011;72858;52.130;5.584;2024-03-23T05:33:37;24.23;;;5.75;;
82513;SDS011;72858;52.130;5.584;2024-03-23T05:36:06;24.63;;;6.53;;
82513;SDS011;72858;52.130;5.584;2024-03-23T05:38:33;20.05;;;5.53;;
82513;SDS011;72858;52.130;5.584;2024-03-23T05:40:59;22.40;;;6.43;;
82513;SDS011;72858;52.130;5.584;2024-03-23T05:43:25;22.75;;;6.63;;
82513;SDS011;72858;52.130;5.584;2024-03-23T05:46:09;17.80;;;6.13;;
82513;SDS011;72858;52.130;5.584;2024-03-23T05:48:34;27.90;;;5.97;;
82513;SDS011;72858;52.130;5.584;2024-03-23T05:50:59;21.63;;;5.57;;
82513;SDS011;72858;52.130;5.584;2024-03-23T05:53:25;17.23;;;5.78;;
82513;SDS011;72858;52.130;5.584;2024-03-23T05:55:50;23.25;;;5.80;;
82513;SDS011;72858;52.130;5.584;2024-03-23T05:58:16;27.90;;;6.03;;
82513;SDS011;72858;52.130;5.584;2024-03-23T06:00:42;22.55;;;6.00;;
82513;SDS011;72858;52.130;5.584;2024-03-23T06:03:07;18.63;;;5.43;;
82513;SDS011;72858;52.130;5.584;2024-03-23T06:05:32;14.15;;;5.13;;
82513;SDS011;72858;52.130;5.584;2024-03-23T06:07:57;22.63;;;5.37;;
82513;SDS011;72858;52.130;5.584;2024-03-23T06:10:23;18.97;;;5.23;;
82513;SDS011;72858;52.130;5.584;2024-03-23T06:12:48;12.73;;;4.50;;
82513;SDS011;72858;52.130;5.584;2024-03-23T06:15:14;20.17;;;4.80;;
82513;SDS011;72858;52.130;5.584;2024-03-23T06:17:39;17.05;;;4.60;;
82513;SDS011;72858;52.130;5.584;2024-03-23T06:20:05;18.85;;;4.53;;
82513;SDS011;72858;52.130;5.584;2024-03-23T06:22:33;16.52;;;4.40;;
82513;SDS011;72858;52.130;5.584;2024-03-23T06:24:58;16.83;;;4.15;;
82513;SDS011;72858;52.130;5.584;2024-03-23T06:27:24;15.98;;;3.95;;
82513;SDS011;72858;52.130;5.584;2024-03-23T06:29:49;17.17;;;4.13;;
82513;SDS011;72858;52.130;5.584;2024-03-23T06:32:14;12.57;;;3.40;;
82513;SDS011;72858;52.130;5.584;2024-03-23T06:34:42;13.67;;;4.13;;
82513;SDS011;72858;52.130;5.584;2024-03-23T06:37:07;15.23;;;3.35;;
82513;SDS011;72858;52.130;5.584;2024-03-23T06:39:34;14.20;;;3.40;;
82513;SDS011;72858;52.130;5.584;2024-03-23T06:42:00;10.48;;;2.97;;
82513;SDS011;72858;52.130;5.584;2024-03-23T06:44:25;12.97;;;2.97;;
82513;SDS011;72858;52.130;5.584;2024-03-23T06:46:50;13.20;;;3.20;;
82513;SDS011;72858;52.130;5.584;2024-03-23T06:49:15;22.43;;;4.00;;
82513;SDS011;72858;52.130;5.584;2024-03-23T06:51:40;14.77;;;3.50;;
82513;SDS011;72858;52.130;5.584;2024-03-23T06:54:06;15.73;;;3.38;;
82513;SDS011;72858;52.130;5.584;2024-03-23T06:56:31;20.30;;;3.80;;
82513;SDS011;72858;52.130;5.584;2024-03-23T06:58:56;15.77;;;4.77;;
82513;SDS011;72858;52.130;5.584;2024-03-23T07:01:22;13.98;;;3.72;;
82513;SDS011;72858;52.130;5.584;2024-03-23T07:03:47;13.65;;;2.70;;
82513;SDS011;72858;52.130;5.584;2024-03-23T07:06:12;15.90;;;3.73;;
82513;SDS011;72858;52.130;5.584;2024-03-23T07:08:37;17.83;;;4.20;;
82513;SDS011;72858;52.130;5.584;2024-03-23T07:11:02;16.53;;;3.40;;
82513;SDS011;72858;52.130;5.584;2024-03-23T07:13:28;17.60;;;3.50;;
82513;SDS011;72858;52.130;5.584;2024-03-23T07:15:53;9.90;;;3.17;;
82513;SDS011;72858;52.130;5.584;2024-03-23T07:18:20;13.50;;;3.78;;
82513;SDS011;72858;52.130;5.584;2024-03-23T07:20:54;13.70;;;3.85;;
82513;SDS011;72858;52.130;5.584;2024-03-23T07:23:21;18.88;;;4.22;;
82513;SDS011;72858;52.130;5.584;2024-03-23T07:25:55;30.70;;;15.27;;
82513;SDS011;72858;52.130;5.584;2024-03-23T07:28:20;15.15;;;4.55;;
82513;SDS011;72858;52.130;5.584;2024-03-23T07:30:46;18.75;;;4.25;;
82513;SDS011;72858;52.130;5.584;2024-03-23T07:33:12;16.53;;;4.77;;
82513;SDS011;72858;52.130;5.584;2024-03-23T07:35:37;19.03;;;4.17;;
82513;SDS011;72858;52.130;5.584;2024-03-23T07:38:02;15.70;;;3.87;;
82513;SDS011;72858;52.130;5.584;2024-03-23T07:40:30;14.50;;;3.78;;
82513;SDS011;72858;52.130;5.584;2024-03-23T07:42:55;14.48;;;4.20;;
82513;SDS011;72858;52.130;5.584;2024-03-23T07:45:20;18.93;;;5.33;;
82513;SDS011;72858;52.130;5.584;2024-03-23T07:47:46;15.97;;;4.97;;
82513;SDS011;72858;52.130;5.584;2024-03-23T07:50:11;13.83;;;5.10;;
82513;SDS011;72858;52.130;5.584;2024-03-23T07:52:36;16.80;;;4.50;;
82513;SDS011;72858;52.130;5.584;2024-03-23T07:55:01;12.63;;;4.00;;
82513;SDS011;72858;52.130;5.584;2024-03-23T07:57:28;16.55;;;4.90;;
82513;SDS011;72858;52.130;5.584;2024-03-23T07:59:53;18.83;;;4.80;;
82513;SDS011;72858;52.130;5.584;2024-03-23T08:02:18;18.67;;;4.47;;
82513;SDS011;72858;52.130;5.584;2024-03-23T08:04:43;15.13;;;4.03;;
82513;SDS011;72858;52.130;5.584;2024-03-23T08:07:08;16.70;;;4.10;;
82513;SDS011;72858;52.130;5.584;2024-03-23T08:09:34;12.50;;;4.30;;
82513;SDS011;72858;52.130;5.584;2024-03-23T08:11:59;10.53;;;3.67;;
82513;SDS011;72858;52.130;5.584;2024-03-23T08:14:24;13.80;;;3.43;;
82513;SDS011;72858;52.130;5.584;2024-03-23T08:16:49;12.47;;;3.60;;
82513;SDS011;72858;52.130;5.584;2024-03-23T08:19:16;10.73;;;3.40;;
82513;SDS011;72858;52.130;5.584;2024-03-23T08:21:41;10.98;;;2.70;;
82513;SDS011;72858;52.130;5.584;2024-03-23T08:24:06;14.98;;;3.28;;
82513;SDS011;72858;52.130;5.584;2024-03-23T08:26:32;14.05;;;3.20;;
82513;SDS011;72858;52.130;5.584;2024-03-23T08:28:57;17.67;;;3.38;;
82513;SDS011;72858;52.130;5.584;2024-03-23T08:31:23;7.77;;;2.30;;
82513;SDS011;72858;52.130;5.584;2024-03-23T08:33:48;10.10;;;2.83;;
82513;SDS011;72858;52.130;5.584;2024-03-23T08:36:13;8.05;;;3.10;;
82513;SDS011;72858;52.130;5.584;2024-03-23T08:38:39;12.90;;;3.50;;
82513;SDS011;72858;52.130;5.584;2024-03-23T08:41:05;9.10;;;2.38;;
82513;SDS011;72858;52.130;5.584;2024-03-23T08:43:32;9.82;;;3.03;;
82513;SDS011;72858;52.130;5.584;2024-03-23T08:48:30;12.98;;;3.17;;
82513;SDS011;72858;52.130;5.584;2024-03-23T08:50:59;13.05;;;2.85;;
82513;SDS011;72858;52.130;5.584;2024-03-23T08:53:26;8.32;;;2.60;;
82513;SDS011;72858;52.130;5.584;2024-03-23T08:55:55;11.55;;;2.38;;
82513;SDS011;72858;52.130;5.584;2024-03-23T08:58:20;12.15;;;2.33;;
82513;SDS011;72858;52.130;5.584;2024-03-23T09:00:46;12.27;;;2.55;;
82513;SDS011;72858;52.130;5.584;2024-03-23T09:03:11;9.30;;;2.33;;
82513;SDS011;72858;52.130;5.584;2024-03-23T09:05:39;8.98;;;2.40;;
82513;SDS011;72858;52.130;5.584;2024-03-23T09:08:05;14.45;;;2.60;;
82513;SDS011;72858;52.130;5.584;2024-03-23T09:10:30;11.60;;;2.05;;
82513;SDS011;72858;52.130;5.584;2024-03-23T09:12:55;11.65;;;2.70;;
82513;SDS011;72858;52.130;5.584;2024-03-23T09:15:21;11.47;;;2.50;;
82513;SDS011;72858;52.130;5.584;2024-03-23T09:17:46;13.30;;;2.55;;
82513;SDS011;72858;52.130;5.584;2024-03-23T09:20:11;11.40;;;2.13;;
82513;SDS011;72858;52.130;5.584;2024-03-23T09:22:36;9.83;;;2.20;;
82513;SDS011;72858;52.130;5.584;2024-03-23T09:25:01;8.70;;;1.80;;
82513;SDS011;72858;52.130;5.584;2024-03-23T09:27:27;7.80;;;1.80;;
82513;SDS011;72858;52.130;5.584;2024-03-23T09:29:52;6.63;;;1.53;;
82513;SDS011;72858;52.130;5.584;2024-03-23T09:32:17;9.43;;;2.17;;
82513;SDS011;72858;52.130;5.584;2024-03-23T09:34:43;8.68;;;1.83;;
82513;SDS011;72858;52.130;5.584;2024-03-23T09:37:08;11.35;;;1.90;;
82513;SDS011;72858;52.130;5.584;2024-03-23T09:39:33;9.53;;;2.00;;
82513;SDS011;72858;52.130;5.584;2024-03-23T09:41:58;9.53;;;1.70;;
82513;SDS011;72858;52.130;5.584;2024-03-23T09:44:24;5.07;;;1.63;;
82513;SDS011;72858;52.130;5.584;2024-03-23T09:46:50;7.05;;;1.75;;
82513;SDS011;72858;52.130;5.584;2024-03-23T09:49:16;9.63;;;1.73;;
82513;SDS011;72858;52.130;5.584;2024-03-23T09:51:42;11.18;;;2.30;;
82513;SDS011;72858;52.130;5.584;2024-03-23T09:54:07;11.07;;;2.30;;
82513;SDS011;72858;52.130;5.584;2024-03-23T09:56:32;8.47;;;2.60;;
82513;SDS011;72858;52.130;5.584;2024-03-23T09:59:01;10.30;;;2.40;;
82513;SDS011;72858;52.130;5.584;2024-03-23T10:01:28;7.50;;;2.58;;
82513;SDS011;72858;52.130;5.584;2024-03-23T10:03:54;3.05;;;1.23;;
82513;SDS011;72858;52.130;5.584;2024-03-23T10:06:21;2.57;;;0.97;;
82513;SDS011;72858;52.130;5.584;2024-03-23T10:08:46;2.75;;;1.30;;
82513;SDS011;72858;52.130;5.584;2024-03-23T10:11:12;7.53;;;1.88;;
82513;SDS011;72858;52.130;5.584;2024-03-23T10:13:38;11.85;;;1.95;;
82513;SDS011;72858;52.130;5.584;2024-03-23T10:16:06;8.35;;;1.83;;
82513;SDS011;72858;52.130;5.584;2024-03-23T10:18:31;11.32;;;2.72;;
82513;SDS011;72858;52.130;5.584;2024-03-23T10:23:34;12.45;;;2.45;;
82513;SDS011;72858;52.130;5.584;2024-03-23T10:26:12;9.50;;;2.60;;
82513;SDS011;72858;52.130;5.584;2024-03-23T10:28:43;11.40;;;2.55;;
82513;SDS011;72858;52.130;5.584;2024-03-23T10:31:15;9.15;;;2.47;;
82513;SDS011;72858;52.130;5.584;2024-03-23T10:33:44;9.55;;;2.17;;
82513;SDS011;72858;52.130;5.584;2024-03-23T10:36:09;10.27;;;2.00;;
82513;SDS011;72858;52.130;5.584;2024-03-23T10:38:34;12.40;;;2.10;;
82513;SDS011;72858;52.130;5.584;2024-03-23T10:41:00;8.23;;;2.25;;
82513;SDS011;72858;52.130;5.584;2024-03-23T10:43:25;10.68;;;2.08;;
82513;SDS011;72858;52.130;5.584;2024-03-23T10:45:50;10.68;;;2.35;;
82513;SDS011;72858;52.130;5.584;2024-03-23T10:48:15;12.13;;;2.77;;
82513;SDS011;72858;52.130;5.584;2024-03-23T10:50:40;9.23;;;2.17;;
82513;SDS011;72858;52.130;5.584;2024-03-23T10:53:06;5.90;;;1.73;;
82513;SDS011;72858;52.130;5.584;2024-03-23T10:55:31;12.07;;;2.35;;
82513;SDS011;72858;52.130;5.584;2024-03-23T10:57:59;10.95;;;2.38;;
82513;SDS011;72858;52.130;5.584;2024-03-23T11:00:25;6.45;;;1.77;;
82513;SDS011;72858;52.130;5.584;2024-03-23T11:02:50;10.80;;;1.83;;
82513;SDS011;72858;52.130;5.584;2024-03-23T11:05:28;14.00;;;2.75;;
82513;SDS011;72858;52.130;5.584;2024-03-23T11:07:54;11.02;;;1.92;;
82513;SDS011;72858;52.130;5.584;2024-03-23T11:10:29;11.27;;;2.47;;
82513;SDS011;72858;52.130;5.584;2024-03-23T11:12:55;10.85;;;1.92;;
82513;SDS011;72858;52.130;5.584;2024-03-23T11:15:20;12.40;;;1.83;;
82513;SDS011;72858;52.130;5.584;2024-03-23T11:20:43;6.60;;;1.45;;
82513;SDS011;72858;52.130;5.584;2024-03-23T11:23:08;9.35;;;1.80;;
82513;SDS011;72858;52.130;5.584;2024-03-23T11:25:51;12.95;;;2.97;;
82513;SDS011;72858;52.130;5.584;2024-03-23T11:28:16;8.68;;;1.60;;
82513;SDS011;72858;52.130;5.584;2024-03-23T11:30:42;8.02;;;1.90;;
82513;SDS011;72858;52.130;5.584;2024-03-23T11:33:07;7.13;;;2.03;;
82513;SDS011;72858;52.130;5.584;2024-03-23T11:35:33;9.80;;;2.05;;
82513;SDS011;72858;52.130;5.584;2024-03-23T11:40:30;11.02;;;2.10;;
82513;SDS011;72858;52.130;5.584;2024-03-23T11:42:59;12.60;;;2.67;;
82513;SDS011;72858;52.130;5.584;2024-03-23T11:45:25;9.90;;;2.40;;
82513;SDS011;72858;52.130;5.584;2024-03-23T11:50:35;10.38;;;2.30;;
82513;SDS011;72858;52.130;5.584;2024-03-23T11:55:41;11.95;;;2.20;;
82513;SDS011;72858;52.130;5.584;2024-03-23T11:58:08;11.52;;;2.00;;
82513;SDS011;72858;52.130;5.584;2024-03-23T12:00:34;5.97;;;1.70;;
82513;SDS011;72858;52.130;5.584;2024-03-23T12:03:02;7.72;;;2.00;;
82513;SDS011;72858;52.130;5.584;2024-03-23T12:05:27;7.93;;;1.80;;
82513;SDS011;72858;52.130;5.584;2024-03-23T12:07:53;8.70;;;1.92;;
82513;SDS011;72858;52.130;5.584;2024-03-23T12:10:21;9.20;;;2.03;;
82513;SDS011;72858;52.130;5.584;2024-03-23T12:12:46;7.43;;;1.80;;
82513;SDS011;72858;52.130;5.584;2024-03-23T12:15:26;6.53;;;1.57;;
82513;SDS011;72858;52.130;5.584;2024-03-23T12:17:52;7.68;;;1.80;;
82513;SDS011;72858;52.130;5.584;2024-03-23T12:20:17;9.43;;;2.50;;
82513;SDS011;72858;52.130;5.584;2024-03-23T12:22:42;9.97;;;2.50;;
82513;SDS011;72858;52.130;5.584;2024-03-23T12:25:07;10.73;;;2.53;;
82513;SDS011;72858;52.130;5.584;2024-03-23T12:27:34;6.50;;;1.65;;
82513;SDS011;72858;52.130;5.584;2024-03-23T12:29:59;10.10;;;2.33;;
82513;SDS011;72858;52.130;5.584;2024-03-23T12:32:27;9.52;;;1.77;;
82513;SDS011;72858;52.130;5.584;2024-03-23T12:34:52;12.43;;;2.77;;
82513;SDS011;72858;52.130;5.584;2024-03-23T12:37:17;7.45;;;1.88;;
82513;SDS011;72858;52.130;5.584;2024-03-23T12:39:43;10.75;;;2.20;;
82513;SDS011;72858;52.130;5.584;2024-03-23T12:42:08;10.03;;;2.27;;
82513;SDS011;72858;52.130;5.584;2024-03-23T12:44:33;7.77;;;1.97;;
82513;SDS011;72858;52.130;5.584;2024-03-23T12:46:58;13.43;;;1.93;;
82513;SDS011;72858;52.130;5.584;2024-03-23T12:49:23;8.20;;;2.07;;
82513;SDS011;72858;52.130;5.584;2024-03-23T12:51:55;6.03;;;1.37;;
82513;SDS011;72858;52.130;5.584;2024-03-23T12:54:21;10.75;;;2.38;;
82513;SDS011;72858;52.130;5.584;2024-03-23T12:56:46;12.93;;;2.30;;
82513;SDS011;72858;52.130;5.584;2024-03-23T12:59:11;11.05;;;2.42;;
82513;SDS011;72858;52.130;5.584;2024-03-23T13:01:37;9.02;;;2.30;;
82513;SDS011;72858;52.130;5.584;2024-03-23T13:04:03;7.80;;;1.70;;
82513;SDS011;72858;52.130;5.584;2024-03-23T13:06:28;8.27;;;1.90;;
82513;SDS011;72858;52.130;5.584;2024-03-23T13:08:58;7.85;;;2.05;;
82513;SDS011;72858;52.130;5.584;2024-03-23T13:11:25;10.48;;;2.03;;
82513;SDS011;72858;52.130;5.584;2024-03-23T13:13:50;9.40;;;2.00;;
82513;SDS011;72858;52.130;5.584;2024-03-23T13:16:16;11.68;;;2.40;;
82513;SDS011;72858;52.130;5.584;2024-03-23T13:18:41;6.13;;;2.10;;
82513;SDS011;72858;52.130;5.584;2024-03-23T13:21:06;10.70;;;2.10;;
82513;SDS011;72858;52.130;5.584;2024-03-23T13:23:31;6.63;;;2.17;;
82513;SDS011;72858;52.130;5.584;2024-03-23T13:25:57;7.72;;;1.70;;
82513;SDS011;72858;52.130;5.584;2024-03-23T13:28:23;10.18;;;2.10;;
82513;SDS011;72858;52.130;5.584;2024-03-23T13:30:54;9.48;;;1.77;;
82513;SDS011;72858;52.130;5.584;2024-03-23T13:33:20;13.55;;;3.17;;
82513;SDS011;72858;52.130;5.584;2024-03-23T13:38:16;9.52;;;1.35;;
82513;SDS011;72858;52.130;5.584;2024-03-23T13:40:51;9.05;;;1.05;;
82513;SDS011;72858;52.130;5.584;2024-03-23T13:43:16;5.80;;;3.40;;
82513;SDS011;72858;52.130;5.584;2024-03-23T13:45:41;2.40;;;1.03;;
82513;SDS011;72858;52.130;5.584;2024-03-23T13:48:07;2.85;;;0.70;;
82513;SDS011;72858;52.130;5.584;2024-03-23T13:50:32;4.20;;;1.77;;
82513;SDS011;72858;52.130;5.584;2024-03-23T13:52:57;2.70;;;1.20;;
82513;SDS011;72858;52.130;5.584;2024-03-23T13:55:22;3.83;;;1.10;;
82513;SDS011;72858;52.130;5.584;2024-03-23T13:57:48;3.58;;;1.33;;
82513;SDS011;72858;52.130;5.584;2024-03-23T14:00:13;4.07;;;1.23;;
82513;SDS011;72858;52.130;5.584;2024-03-23T14:02:39;5.07;;;1.50;;
82513;SDS011;72858;52.130;5.584;2024-03-23T14:05:05;3.70;;;1.13;;
82513;SDS011;72858;52.130;5.584;2024-03-23T14:07:30;5.60;;;1.45;;
82513;SDS011;72858;52.130;5.584;2024-03-23T14:09:55;4.60;;;1.20;;
82513;SDS011;72858;52.130;5.584;2024-03-23T14:12:20;5.50;;;1.40;;
82513;SDS011;72858;52.130;5.584;2024-03-23T14:14:45;3.30;;;1.10;;
82513;SDS011;72858;52.130;5.584;2024-03-23T14:17:11;10.50;;;1.50;;
82513;SDS011;72858;52.130;5.584;2024-03-23T14:19:39;6.18;;;1.63;;
82513;SDS011;72858;52.130;5.584;2024-03-23T14:22:04;13.50;;;2.70;;
82513;SDS011;72858;52.130;5.584;2024-03-23T14:24:29;5.20;;;1.70;;
82513;SDS011;72858;52.130;5.584;2024-03-23T14:26:57;7.53;;;1.90;;
82513;SDS011;72858;52.130;5.584;2024-03-23T14:29:22;7.25;;;2.28;;
82513;SDS011;72858;52.130;5.584;2024-03-23T14:31:48;8.10;;;2.23;;
82513;SDS011;72858;52.130;5.584;2024-03-23T14:34:14;9.90;;;1.98;;
82513;SDS011;72858;52.130;5.584;2024-03-23T14:36:39;9.30;;;1.88;;
82513;SDS011;72858;52.130;5.584;2024-03-23T14:39:05;9.03;;;1.87;;
82513;SDS011;72858;52.130;5.584;2024-03-23T14:41:30;8.82;;;2.40;;
82513;SDS011;72858;52.130;5.584;2024-03-23T14:43:55;7.73;;;2.03;;
82513;SDS011;72858;52.130;5.584;2024-03-23T14:46:21;8.45;;;2.08;;
82513;SDS011;72858;52.130;5.584;2024-03-23T14:48:48;5.72;;;1.88;;
82513;SDS011;72858;52.130;5.584;2024-03-23T14:51:13;8.73;;;1.88;;
82513;SDS011;72858;52.130;5.584;2024-03-23T14:53:39;6.40;;;1.90;;
82513;SDS011;72858;52.130;5.584;2024-03-23T14:56:05;14.10;;;3.33;;
82513;SDS011;72858;52.130;5.584;2024-03-23T14:58:30;5.80;;;2.22;;
82513;SDS011;72858;52.130;5.584;2024-03-23T15:01:02;7.17;;;2.10;;
82513;SDS011;72858;52.130;5.584;2024-03-23T15:03:27;8.85;;;1.65;;
82513;SDS011;72858;52.130;5.584;2024-03-23T15:05:53;7.30;;;2.10;;
82513;SDS011;72858;52.130;5.584;2024-03-23T15:08:18;9.82;;;1.92;;
82513;SDS011;72858;52.130;5.584;2024-03-23T15:10:43;7.60;;;2.00;;
82513;SDS011;72858;52.130;5.584;2024-03-23T15:13:08;9.03;;;4.30;;
82513;SDS011;72858;52.130;5.584;2024-03-23T15:15:37;5.35;;;1.60;;
82513;SDS011;72858;52.130;5.584;2024-03-23T15:18:04;5.55;;;1.10;;
82513;SDS011;72858;52.130;5.584;2024-03-23T15:20:29;4.43;;;1.10;;
82513;SDS011;72858;52.130;5.584;2024-03-23T15:22:54;7.53;;;1.47;;
82513;SDS011;72858;52.130;5.584;2024-03-23T15:25:19;8.60;;;1.83;;
82513;SDS011;72858;52.130;5.584;2024-03-23T15:27:48;9.35;;;1.95;;
82513;SDS011;72858;52.130;5.584;2024-03-23T15:30:13;7.82;;;1.58;;
82513;SDS011;72858;52.130;5.584;2024-03-23T15:32:39;6.53;;;1.48;;
82513;SDS011;72858;52.130;5.584;2024-03-23T15:35:04;6.77;;;1.53;;
82513;SDS011;72858;52.130;5.584;2024-03-23T15:37:31;6.60;;;1.63;;